createdAt,value
2019-03-17T00:02:02.676Z,3.83
2019-03-17T00:04:32.045Z,3.80
2019-03-17T00:07:01.079Z,3.30
2019-03-17T00:09:30.460Z,3.70
2019-03-17T00:11:59.571Z,3.57
2019-03-17T00:14:28.643Z,4.30
2019-03-17T00:16:57.643Z,4.07
2019-03-17T00:19:27.714Z,3.77
2019-03-17T00:21:56.976Z,4.00
2019-03-17T00:24:26.178Z,3.43
2019-03-17T00:26:55.218Z,4.33
2019-03-17T00:29:24.207Z,4.53
2019-03-17T00:31:53.406Z,3.93
2019-03-17T00:34:22.582Z,3.83
2019-03-17T00:36:51.748Z,4.67
2019-03-17T00:39:20.748Z,3.60
2019-03-17T00:41:49.855Z,3.73
2019-03-17T00:44:19.041Z,3.77
2019-03-17T00:46:48.151Z,4.60
2019-03-17T00:49:17.346Z,3.60
2019-03-17T00:51:48.817Z,3.73
2019-03-17T00:54:17.835Z,3.53
2019-03-17T00:56:46.903Z,4.33
2019-03-17T00:59:16.082Z,3.87
2019-03-17T01:01:46.182Z,4.13
2019-03-17T01:04:15.510Z,4.23
2019-03-17T01:06:44.723Z,4.50
2019-03-17T01:09:13.819Z,3.77
2019-03-17T01:11:42.911Z,4.47
2019-03-17T01:14:12.362Z,3.77
2019-03-17T01:16:41.538Z,3.20
2019-03-17T01:19:10.789Z,3.57
2019-03-17T01:21:40.243Z,3.97
2019-03-17T01:24:10.448Z,3.73
2019-03-17T01:26:39.536Z,3.97
2019-03-17T01:29:08.627Z,4.23
2019-03-17T01:31:37.972Z,4.27
2019-03-17T01:34:07.399Z,3.73
2019-03-17T01:36:39.072Z,3.87
2019-03-17T01:39:08.577Z,3.90
2019-03-17T01:41:37.903Z,3.57
2019-03-17T01:44:07.639Z,3.83
2019-03-17T01:46:37.272Z,3.20
2019-03-17T01:49:06.319Z,3.90
2019-03-17T01:51:35.574Z,3.87
2019-03-17T01:54:04.615Z,3.43
2019-03-17T01:56:33.562Z,3.03
2019-03-17T01:59:02.678Z,3.90
2019-03-17T02:01:31.701Z,3.80
2019-03-17T02:04:00.790Z,3.20
2019-03-17T02:06:29.873Z,4.03
2019-03-17T02:08:59.067Z,3.80
2019-03-17T02:11:28.124Z,3.07
2019-03-17T02:13:57.155Z,3.00
2019-03-17T02:16:26.194Z,3.30
2019-03-17T02:18:55.536Z,3.53
2019-03-17T02:21:24.601Z,3.63
2019-03-17T02:23:53.640Z,3.43
2019-03-17T02:26:22.736Z,4.23
2019-03-17T02:28:51.784Z,3.50
2019-03-17T02:31:20.840Z,3.40
2019-03-17T02:33:50.050Z,2.87
2019-03-17T02:36:19.202Z,3.20
2019-03-17T02:38:48.300Z,3.10
2019-03-17T02:41:17.496Z,3.03
2019-03-17T02:43:46.830Z,3.23
2019-03-17T02:46:15.915Z,3.07
2019-03-17T02:48:44.948Z,3.10
2019-03-17T02:51:13.931Z,3.70
2019-03-17T02:53:43.126Z,3.17
2019-03-17T02:56:12.078Z,3.37
2019-03-17T02:58:41.249Z,2.93
2019-03-17T03:01:10.338Z,3.50
2019-03-17T03:03:39.482Z,3.30
2019-03-17T03:06:08.412Z,2.33
2019-03-17T03:08:37.396Z,3.50
2019-03-17T03:11:06.491Z,3.13
2019-03-17T03:13:35.513Z,3.03
2019-03-17T03:16:06.012Z,3.03
2019-03-17T03:18:35.417Z,2.80
2019-03-17T03:21:04.565Z,2.57
2019-03-17T03:23:33.772Z,3.17
2019-03-17T03:26:02.747Z,2.53
2019-03-17T03:28:31.901Z,2.90
2019-03-17T03:31:00.921Z,2.23
2019-03-17T03:33:30.035Z,3.23
2019-03-17T03:36:10.657Z,2.60
2019-03-17T03:38:29.865Z,2.83
2019-03-17T03:40:59.083Z,2.40
2019-03-17T03:43:28.089Z,2.60
2019-03-17T03:45:57.190Z,2.90
2019-03-17T03:48:26.203Z,2.97
2019-03-17T03:50:55.891Z,2.70
2019-03-17T03:53:24.927Z,2.30
2019-03-17T03:55:54.140Z,2.33
2019-03-17T03:58:23.293Z,2.53
2019-03-17T04:00:53.492Z,2.27
2019-03-17T04:03:22.456Z,2.70
2019-03-17T04:05:51.868Z,1.90
2019-03-17T04:08:20.955Z,2.70
2019-03-17T04:10:50.239Z,2.47
2019-03-17T04:13:19.337Z,2.10
2019-03-17T04:15:48.499Z,2.37
2019-03-17T04:18:17.473Z,2.50
2019-03-17T04:20:46.610Z,2.40
2019-03-17T04:23:15.680Z,2.00
2019-03-17T04:25:45.274Z,1.87
2019-03-17T04:28:15.048Z,1.83
2019-03-17T04:30:44.117Z,2.20
2019-03-17T04:33:13.273Z,2.30
2019-03-17T04:35:42.327Z,1.70
2019-03-17T04:38:11.320Z,2.60
2019-03-17T04:40:40.311Z,2.50
2019-03-17T04:43:09.323Z,2.07
2019-03-17T04:45:38.344Z,2.60
2019-03-17T04:48:07.436Z,2.17
2019-03-17T04:50:36.456Z,1.80
2019-03-17T04:53:05.566Z,2.00
2019-03-17T04:55:34.516Z,2.80
2019-03-17T04:58:03.543Z,2.30
2019-03-17T05:00:32.548Z,2.20
2019-03-17T05:03:01.642Z,1.80
2019-03-17T05:05:30.908Z,2.80
2019-03-17T05:07:59.932Z,2.00
2019-03-17T05:10:28.960Z,2.43
2019-03-17T05:12:58.051Z,1.90
2019-03-17T05:15:26.970Z,2.37
2019-03-17T05:17:56.147Z,2.70
2019-03-17T05:20:25.131Z,2.53
2019-03-17T05:22:54.168Z,2.73
2019-03-17T05:25:23.231Z,2.40
2019-03-17T05:27:52.183Z,2.90
2019-03-17T05:30:21.231Z,1.97
2019-03-17T05:32:50.252Z,2.40
2019-03-17T05:35:19.408Z,2.63
2019-03-17T05:37:48.464Z,2.10
2019-03-17T05:40:17.692Z,2.10
2019-03-17T05:42:46.755Z,1.83
2019-03-17T05:45:15.691Z,2.87
2019-03-17T05:47:44.699Z,2.03
2019-03-17T05:50:13.931Z,2.60
2019-03-17T05:52:42.916Z,2.40
2019-03-17T05:55:12.072Z,1.97
2019-03-17T05:57:41.147Z,1.97
2019-03-17T06:00:12.183Z,1.97
2019-03-17T06:02:41.259Z,1.93
2019-03-17T06:05:10.479Z,2.23
2019-03-17T06:07:39.889Z,2.20
2019-03-17T06:10:08.998Z,2.10
2019-03-17T06:12:38.298Z,2.53
2019-03-17T06:15:08.500Z,2.20
2019-03-17T06:17:37.496Z,1.30
2019-03-17T06:20:07.679Z,0.90
2019-03-17T06:22:36.840Z,0.97
2019-03-17T06:25:06.852Z,0.97
2019-03-17T06:27:36.139Z,0.83
2019-03-17T06:30:06.689Z,0.70
2019-03-17T06:32:35.991Z,0.77
2019-03-17T06:35:06.060Z,1.00
2019-03-17T06:37:35.480Z,0.70
2019-03-17T06:40:05.114Z,0.80
2019-03-17T06:42:34.180Z,0.73
2019-03-17T06:45:03.321Z,0.67
2019-03-17T06:47:32.370Z,1.00
2019-03-17T06:50:01.370Z,0.97
2019-03-17T06:52:30.327Z,0.90
2019-03-17T06:55:02.028Z,0.73
2019-03-17T06:57:31.313Z,0.80
2019-03-17T07:00:00.433Z,1.00
2019-03-17T07:02:29.403Z,0.80
2019-03-17T07:04:58.395Z,0.80
2019-03-17T07:07:27.360Z,0.73
2019-03-17T07:09:56.283Z,1.20
2019-03-17T07:12:25.343Z,0.60
2019-03-17T07:14:54.411Z,1.00
2019-03-17T07:17:23.487Z,0.77
2019-03-17T07:19:52.567Z,1.23
2019-03-17T07:22:21.552Z,0.70
2019-03-17T07:24:50.701Z,1.20
2019-03-17T07:27:19.963Z,0.80
2019-03-17T07:29:49.590Z,0.70
2019-03-17T07:32:18.684Z,0.60
2019-03-17T07:34:47.775Z,0.80
2019-03-17T07:37:16.834Z,0.70
2019-03-17T07:39:45.787Z,0.77
2019-03-17T07:42:15.021Z,0.57
2019-03-17T07:44:43.997Z,0.80
2019-03-17T07:47:12.991Z,0.80
2019-03-17T07:49:42.139Z,1.00
2019-03-17T07:52:11.238Z,1.50
2019-03-17T07:54:40.205Z,0.70
2019-03-17T07:57:09.273Z,0.77
2019-03-17T07:59:38.326Z,1.20
2019-03-17T08:02:07.471Z,1.37
2019-03-17T08:04:42.531Z,1.30
2019-03-17T08:07:07.171Z,1.17
2019-03-17T08:09:36.244Z,1.13
2019-03-17T08:12:05.387Z,1.27
2019-03-17T08:14:34.276Z,1.23
2019-03-17T08:17:03.350Z,1.40
2019-03-17T08:19:32.446Z,1.27
2019-03-17T08:22:01.510Z,0.80
2019-03-17T08:24:30.557Z,1.50
2019-03-17T08:26:59.715Z,0.87
2019-03-17T08:29:28.703Z,1.43
2019-03-17T08:31:57.720Z,1.03
2019-03-17T08:34:26.840Z,1.13
2019-03-17T08:36:55.833Z,1.07
2019-03-17T08:39:24.787Z,1.20
2019-03-17T08:41:53.927Z,1.47
2019-03-17T08:44:22.992Z,0.60
2019-03-17T08:46:51.892Z,1.23
2019-03-17T08:49:20.859Z,1.20
2019-03-17T08:51:49.758Z,1.03
2019-03-17T08:54:18.847Z,1.37
2019-03-17T08:56:47.835Z,1.03
2019-03-17T08:59:16.829Z,1.07
2019-03-17T09:01:47.556Z,1.03
2019-03-17T09:04:16.612Z,1.20
2019-03-17T09:06:45.852Z,1.50
2019-03-17T09:09:14.776Z,1.50
2019-03-17T09:11:43.951Z,1.20
2019-03-17T09:14:13.119Z,1.70
2019-03-17T09:16:42.160Z,1.23
2019-03-17T09:19:11.282Z,1.67
2019-03-17T09:21:40.408Z,1.20
2019-03-17T09:24:17.012Z,1.10
2019-03-17T09:26:40.225Z,1.00
2019-03-17T09:29:09.329Z,1.63
2019-03-17T09:31:38.397Z,1.77
2019-03-17T09:34:07.333Z,1.60
2019-03-17T09:36:37.309Z,1.30
2019-03-17T09:39:07.391Z,1.57
2019-03-17T09:41:36.368Z,1.63
2019-03-17T09:44:05.544Z,2.10
2019-03-17T09:46:34.711Z,1.57
2019-03-17T09:49:03.771Z,1.30
2019-03-17T09:51:32.847Z,1.70
2019-03-17T09:54:01.863Z,1.83
2019-03-17T09:56:30.838Z,1.40
2019-03-17T09:58:59.930Z,1.70
2019-03-17T10:01:28.920Z,1.13
2019-03-17T10:03:58.041Z,1.10
2019-03-17T10:06:26.950Z,2.50
2019-03-17T10:09:00.267Z,1.07
2019-03-17T10:11:26.648Z,0.97
2019-03-17T10:13:55.737Z,1.10
2019-03-17T10:16:24.733Z,1.10
2019-03-17T10:18:53.789Z,1.40
2019-03-17T10:21:22.763Z,1.30
2019-03-17T10:23:51.800Z,1.43
2019-03-17T10:26:20.776Z,1.27
2019-03-17T10:28:49.990Z,1.00
2019-03-17T10:31:19.019Z,1.70
2019-03-17T10:33:48.131Z,1.20
2019-03-17T10:36:17.792Z,1.10
2019-03-17T10:38:46.760Z,1.43
2019-03-17T10:41:15.754Z,1.13
2019-03-17T10:43:44.872Z,1.43
2019-03-17T10:46:13.921Z,1.27
2019-03-17T10:48:42.965Z,1.53
2019-03-17T10:51:12.079Z,1.73
2019-03-17T10:53:41.087Z,1.50
2019-03-17T10:56:10.597Z,1.00
2019-03-17T10:58:39.836Z,1.57
2019-03-17T11:01:08.997Z,1.90
2019-03-17T11:03:38.079Z,1.50
2019-03-17T11:06:07.192Z,2.20
2019-03-17T11:08:36.145Z,1.60
2019-03-17T11:11:05.339Z,1.57
2019-03-17T11:13:34.465Z,1.60
2019-03-17T11:16:03.494Z,1.80
2019-03-17T11:18:32.529Z,1.70
2019-03-17T11:21:01.546Z,1.83
2019-03-17T11:23:30.613Z,1.50
2019-03-17T11:25:59.734Z,2.00
2019-03-17T11:28:28.779Z,1.90
2019-03-17T11:30:59.614Z,2.07
2019-03-17T11:33:28.737Z,2.70
2019-03-17T11:35:57.751Z,1.73
2019-03-17T11:38:26.807Z,1.97
2019-03-17T11:40:55.897Z,2.07
2019-03-17T11:43:24.951Z,1.83
2019-03-17T11:45:53.982Z,1.30
2019-03-17T11:48:23.077Z,1.27
2019-03-17T11:50:52.193Z,1.40
2019-03-17T11:53:21.270Z,1.03
2019-03-17T11:55:50.505Z,0.93
2019-03-17T11:58:19.463Z,1.10
2019-03-17T12:00:48.460Z,1.30
2019-03-17T12:03:18.469Z,1.63
2019-03-17T12:05:47.392Z,1.57
2019-03-17T12:08:21.238Z,0.73
2019-03-17T12:10:50.288Z,1.10
2019-03-17T12:13:23.379Z,0.67
2019-03-17T12:15:52.371Z,0.70
2019-03-17T12:18:21.974Z,0.50
2019-03-17T12:20:50.860Z,1.00
2019-03-17T12:23:20.790Z,0.90
2019-03-17T12:25:49.815Z,0.90
2019-03-17T12:28:18.863Z,0.60
2019-03-17T12:30:47.874Z,0.87
2019-03-17T12:33:16.901Z,0.67
2019-03-17T12:35:45.920Z,0.80
2019-03-17T12:38:14.972Z,0.80
2019-03-17T12:40:44.129Z,0.60
2019-03-17T12:43:13.159Z,0.90
2019-03-17T12:45:42.161Z,1.00
2019-03-17T12:48:11.120Z,1.17
2019-03-17T12:50:40.260Z,0.87
2019-03-17T12:53:09.225Z,0.90
2019-03-17T12:55:38.207Z,1.03
2019-03-17T12:58:07.246Z,1.20
2019-03-17T13:00:36.315Z,0.70
2019-03-17T13:03:05.368Z,0.80
2019-03-17T13:05:34.363Z,0.73
2019-03-17T13:08:03.428Z,0.80
2019-03-17T13:10:32.564Z,0.70
2019-03-17T13:13:01.569Z,0.67
2019-03-17T13:15:30.504Z,0.77
2019-03-17T13:17:59.460Z,0.60
2019-03-17T13:20:29.769Z,1.20
2019-03-17T13:22:58.943Z,1.00
2019-03-17T13:25:28.059Z,0.70
2019-03-17T13:27:57.041Z,0.60
2019-03-17T13:30:26.121Z,0.80
2019-03-17T13:32:55.280Z,0.87
2019-03-17T13:35:24.359Z,0.97
2019-03-17T13:37:53.320Z,0.83
2019-03-17T13:40:30.204Z,0.77
2019-03-17T13:42:53.020Z,0.90
2019-03-17T13:45:24.963Z,1.20
2019-03-17T13:47:57.034Z,0.57
2019-03-17T13:50:25.995Z,0.83
2019-03-17T13:52:55.130Z,1.03
2019-03-17T13:55:24.270Z,2.07
2019-03-17T13:57:54.698Z,1.00
2019-03-17T14:00:23.827Z,1.10
2019-03-17T14:02:52.972Z,0.80
2019-03-17T14:05:22.199Z,1.30
2019-03-17T14:07:51.424Z,0.90
2019-03-17T14:10:21.243Z,0.87
2019-03-17T14:12:50.921Z,0.93
2019-03-17T14:15:23.591Z,0.90
2019-03-17T14:17:53.165Z,1.10
2019-03-17T14:20:22.603Z,1.27
2019-03-17T14:22:52.322Z,1.67
2019-03-17T14:25:24.542Z,0.90
2019-03-17T14:27:53.727Z,1.20
2019-03-17T14:30:23.501Z,1.00
2019-03-17T14:32:52.633Z,1.20
2019-03-17T14:35:22.096Z,1.53
2019-03-17T14:37:51.120Z,1.17
2019-03-17T14:40:20.274Z,1.03
2019-03-17T14:42:49.386Z,1.17
2019-03-17T14:45:18.482Z,1.17
2019-03-17T14:47:47.683Z,1.43
2019-03-17T14:50:17.696Z,1.23
2019-03-17T14:52:46.831Z,1.40
2019-03-17T14:55:16.002Z,1.00
2019-03-17T14:57:45.111Z,1.13
2019-03-17T15:00:16.121Z,0.97
2019-03-17T15:02:45.627Z,1.20
2019-03-17T15:05:15.049Z,2.00
2019-03-17T15:07:44.156Z,1.40
2019-03-17T15:10:15.176Z,0.83
2019-03-17T15:12:45.109Z,1.60
2019-03-17T15:15:15.332Z,1.10
2019-03-17T15:17:44.463Z,1.13
2019-03-17T15:20:15.469Z,1.20
2019-03-17T15:22:44.521Z,0.97
2019-03-17T15:25:13.763Z,1.00
2019-03-17T15:27:42.793Z,0.90
2019-03-17T15:30:14.637Z,1.20
2019-03-17T15:32:43.705Z,1.30
2019-03-17T15:35:13.100Z,0.97
2019-03-17T15:37:42.492Z,1.17
2019-03-17T15:40:12.059Z,1.17
2019-03-17T15:42:41.301Z,1.13
2019-03-17T15:45:12.186Z,1.27
2019-03-17T15:47:41.567Z,3.47
2019-03-17T15:50:11.899Z,3.13
2019-03-17T15:52:41.300Z,1.50
2019-03-17T15:55:11.489Z,1.13
2019-03-17T15:57:40.700Z,1.17
2019-03-17T16:00:25.101Z,0.70
2019-03-17T16:02:46.988Z,1.00
2019-03-17T16:05:16.099Z,1.40
2019-03-17T16:07:45.291Z,1.00
2019-03-17T16:10:15.391Z,0.73
2019-03-17T16:12:44.612Z,0.73
2019-03-17T16:15:14.322Z,0.90
2019-03-17T16:17:43.449Z,0.90
2019-03-17T16:20:14.648Z,1.07
2019-03-17T16:22:47.992Z,0.80
2019-03-17T16:25:17.726Z,0.87
2019-03-17T16:27:47.157Z,1.03
2019-03-17T16:30:18.442Z,1.03
2019-03-17T16:32:47.547Z,0.93
2019-03-17T16:35:16.867Z,0.87
2019-03-17T16:37:46.230Z,1.00
2019-03-17T16:40:16.747Z,1.27
2019-03-17T16:42:46.163Z,1.07
2019-03-17T16:45:17.554Z,0.77
2019-03-17T16:47:46.699Z,1.03
2019-03-17T16:50:16.928Z,3.07
2019-03-17T16:52:46.321Z,0.90
2019-03-17T16:55:15.506Z,1.17
2019-03-17T16:57:44.710Z,1.23
2019-03-17T17:00:18.844Z,0.97
2019-03-17T17:02:47.158Z,0.80
2019-03-17T17:05:17.056Z,1.20
2019-03-17T17:07:46.496Z,1.20
2019-03-17T17:10:18.700Z,1.40
2019-03-17T17:12:48.104Z,0.80
2019-03-17T17:15:21.963Z,0.90
2019-03-17T17:17:51.611Z,1.10
2019-03-17T17:20:23.898Z,1.00
2019-03-17T17:22:53.110Z,0.87
2019-03-17T17:25:22.295Z,3.20
2019-03-17T17:27:51.525Z,1.30
2019-03-17T17:30:20.779Z,1.20
2019-03-17T17:32:49.969Z,1.23
2019-03-17T17:35:19.285Z,1.20
2019-03-17T17:37:48.546Z,1.07
2019-03-17T17:40:18.293Z,1.23
2019-03-17T17:42:47.700Z,1.23
2019-03-17T17:45:17.077Z,4.07
2019-03-17T17:47:46.192Z,3.17
2019-03-17T17:50:16.467Z,3.03
2019-03-17T17:52:45.723Z,2.13
2019-03-17T17:55:14.709Z,3.17
2019-03-17T17:57:43.795Z,1.87
2019-03-17T18:00:15.927Z,1.63
2019-03-17T18:02:44.845Z,1.83
2019-03-17T18:05:13.985Z,1.80
2019-03-17T18:07:45.597Z,2.63
2019-03-17T18:10:14.806Z,2.73
2019-03-17T18:12:43.969Z,2.87
2019-03-17T18:15:14.623Z,2.30
2019-03-17T18:17:44.051Z,1.30
2019-03-17T18:20:13.756Z,1.47
2019-03-17T18:22:43.783Z,1.70
2019-03-17T18:25:13.649Z,1.20
2019-03-17T18:27:43.162Z,1.60
2019-03-17T18:30:14.997Z,1.10
2019-03-17T18:32:51.625Z,1.37
2019-03-17T18:35:17.324Z,1.37
2019-03-17T18:37:50.790Z,1.20
2019-03-17T18:40:18.855Z,1.30
2019-03-17T18:42:49.168Z,1.73
2019-03-17T18:45:20.201Z,1.53
2019-03-17T18:47:53.609Z,1.23
2019-03-17T18:50:22.754Z,1.37
2019-03-17T18:52:53.412Z,1.10
2019-03-17T18:55:23.636Z,1.90
2019-03-17T18:57:54.663Z,1.73
2019-03-17T19:00:24.071Z,1.03
2019-03-17T19:02:53.370Z,1.27
2019-03-17T19:05:23.160Z,1.27
2019-03-17T19:07:56.291Z,1.40
2019-03-17T19:10:25.447Z,2.10
2019-03-17T19:12:54.676Z,1.60
2019-03-17T19:15:24.018Z,1.30
2019-03-17T19:17:53.128Z,1.20
2019-03-17T19:20:24.067Z,1.10
2019-03-17T19:22:53.293Z,1.33
2019-03-17T19:25:24.647Z,1.63
2019-03-17T19:27:54.976Z,5.50
2019-03-17T19:30:25.778Z,1.43
2019-03-17T19:32:59.144Z,0.90
2019-03-17T19:35:28.414Z,0.67
2019-03-17T19:38:01.050Z,1.40
2019-03-17T19:40:30.517Z,1.10
2019-03-17T19:42:59.925Z,2.07
2019-03-17T19:45:29.449Z,1.30
2019-03-17T19:48:03.427Z,1.57
2019-03-17T19:50:32.483Z,1.53
2019-03-17T19:53:02.220Z,1.90
2019-03-17T19:55:31.291Z,2.40
2019-03-17T19:58:03.112Z,1.30
2019-03-17T20:00:32.143Z,1.40
2019-03-17T20:03:01.177Z,1.67
2019-03-17T20:05:30.252Z,1.00
2019-03-17T20:07:59.344Z,2.50
2019-03-17T20:10:28.459Z,1.90
2019-03-17T20:13:10.269Z,1.40
2019-03-17T20:15:28.211Z,1.37
2019-03-17T20:17:57.653Z,1.30
2019-03-17T20:20:26.579Z,1.43
2019-03-17T20:22:55.935Z,1.40
2019-03-17T20:25:24.976Z,1.23
2019-03-17T20:27:53.919Z,1.97
2019-03-17T20:30:23.120Z,1.77
2019-03-17T20:32:52.282Z,1.53
2019-03-17T20:35:22.353Z,1.03
2019-03-17T20:37:52.863Z,1.40
2019-03-17T20:40:22.642Z,1.70
2019-03-17T20:42:52.383Z,1.50
2019-03-17T20:45:26.351Z,1.70
2019-03-17T20:47:57.888Z,2.10
2019-03-17T20:50:28.787Z,1.47
2019-03-17T20:52:58.601Z,1.83
2019-03-17T20:55:29.998Z,1.90
2019-03-17T20:57:59.595Z,1.50
2019-03-17T21:00:29.764Z,1.40
2019-03-17T21:02:58.908Z,1.70
2019-03-17T21:05:28.416Z,1.67
2019-03-17T21:07:57.616Z,1.77
2019-03-17T21:10:26.763Z,2.00
2019-03-17T21:13:02.416Z,1.17
2019-03-17T21:15:35.859Z,1.83
2019-03-17T21:18:05.056Z,1.10
2019-03-17T21:20:36.443Z,1.70
2019-03-17T21:23:06.469Z,1.40
2019-03-17T21:25:37.678Z,2.60
2019-03-17T21:28:08.586Z,1.43
2019-03-17T21:30:37.824Z,1.33
2019-03-17T21:33:09.779Z,1.43
2019-03-17T21:35:38.865Z,1.40
2019-03-17T21:38:08.057Z,1.87
2019-03-17T21:40:37.184Z,1.77
2019-03-17T21:43:06.355Z,1.87
2019-03-17T21:45:35.495Z,1.93
2019-03-17T21:48:04.663Z,1.47
2019-03-17T21:50:33.608Z,1.50
2019-03-17T21:53:02.735Z,1.37
2019-03-17T21:55:31.915Z,1.77
2019-03-17T21:58:07.633Z,2.30
2019-03-17T22:00:31.869Z,1.47
2019-03-17T22:03:01.016Z,2.03
2019-03-17T22:05:29.935Z,2.00
2019-03-17T22:07:59.112Z,1.43
2019-03-17T22:10:29.131Z,1.10
2019-03-17T22:12:59.702Z,1.90
2019-03-17T22:15:28.715Z,1.10
2019-03-17T22:17:57.771Z,1.33
2019-03-17T22:20:26.883Z,1.53
2019-03-17T22:22:56.806Z,1.10
2019-03-17T22:25:25.899Z,1.60
2019-03-17T22:28:07.479Z,1.10
2019-03-17T22:30:25.655Z,1.23
2019-03-17T22:32:54.715Z,1.83
2019-03-17T22:35:23.818Z,1.60
2019-03-17T22:37:52.719Z,1.60
2019-03-17T22:40:21.752Z,1.40
2019-03-17T22:42:50.790Z,1.50
2019-03-17T22:45:19.884Z,1.53
2019-03-17T22:47:49.146Z,1.60
2019-03-17T22:50:18.377Z,2.53
2019-03-17T22:52:47.449Z,1.20
2019-03-17T22:55:16.685Z,1.83
2019-03-17T22:57:45.759Z,1.77
2019-03-17T23:00:17.578Z,1.50
2019-03-17T23:02:47.630Z,1.60
2019-03-17T23:05:16.766Z,2.03
2019-03-17T23:07:45.913Z,1.50
2019-03-17T23:10:15.100Z,2.23
2019-03-17T23:12:44.101Z,1.37
2019-03-17T23:15:13.306Z,1.53
2019-03-17T23:17:42.372Z,1.83
2019-03-17T23:20:11.771Z,2.03
2019-03-17T23:22:40.727Z,1.20
2019-03-17T23:25:10.315Z,1.33
2019-03-17T23:27:41.206Z,1.70
2019-03-17T23:30:11.234Z,1.00
2019-03-17T23:32:40.217Z,1.30
2019-03-17T23:35:10.794Z,1.47
2019-03-17T23:37:39.763Z,1.80
2019-03-17T23:40:09.942Z,1.60
2019-03-17T23:42:39.642Z,1.70
2019-03-17T23:45:13.278Z,1.20
2019-03-17T23:47:42.498Z,2.00
2019-03-17T23:50:12.177Z,1.87
2019-03-17T23:52:41.221Z,1.83
2019-03-17T23:55:11.528Z,2.40
2019-03-17T23:57:40.670Z,1.20
